sensor_id;sensor_type;location;lat;lon;timestamp;temperature;humidity
66140;DHT22;52945;51.908;8.364;2023-04-24T00:02:43;14.20;60.70
66140;DHT22;52945;51.908;8.364;2023-04-24T00:05:47;14.30;60.40
66140;DHT22;52945;51.908;8.364;2023-04-24T00:08:48;14.20;60.40
66140;DHT22;52945;51.908;8.364;2023-04-24T00:11:48;14.30;60.80
66140;DHT22;52945;51.908;8.364;2023-04-24T00:14:49;14.40;60.90
66140;DHT22;52945;51.908;8.364;2023-04-24T00:17:49;14.30;61.10
66140;DHT22;52945;51.908;8.364;2023-04-24T00:20:50;14.30;61.50
66140;DHT22;52945;51.908;8.364;2023-04-24T00:23:51;14.30;61.40
66140;DHT22;52945;51.908;8.364;2023-04-24T00:26:51;14.20;61.40
66140;DHT22;52945;51.908;8.364;2023-04-24T00:29:52;14.10;59.70
66140;DHT22;52945;51.908;8.364;2023-04-24T00:32:53;14.20;59.00
66140;DHT22;52945;51.908;8.364;2023-04-24T00:35:53;14.20;59.30
66140;DHT22;52945;51.908;8.364;2023-04-24T00:38:54;14.20;59.70
66140;DHT22;52945;51.908;8.364;2023-04-24T00:41:56;14.20;59.70
66140;DHT22;52945;51.908;8.364;2023-04-24T00:44:57;14.30;60.10
66140;DHT22;52945;51.908;8.364;2023-04-24T00:47:58;14.30;60.50
66140;DHT22;52945;51.908;8.364;2023-04-24T00:50:59;14.20;60.70
66140;DHT22;52945;51.908;8.364;2023-04-24T00:54:00;14.20;61.30
66140;DHT22;52945;51.908;8.364;2023-04-24T00:57:04;14.20;61.60
66140;DHT22;52945;51.908;8.364;2023-04-24T01:00:06;14.30;61.20
66140;DHT22;52945;51.908;8.364;2023-04-24T01:03:10;14.20;61.20
66140;DHT22;52945;51.908;8.364;2023-04-24T01:06:12;14.20;61.40
66140;DHT22;52945;51.908;8.364;2023-04-24T01:09:13;14.20;61.80
66140;DHT22;52945;51.908;8.364;2023-04-24T01:12:15;14.20;61.60
66140;DHT22;52945;51.908;8.364;2023-04-24T01:15:16;14.30;61.90
66140;DHT22;52945;51.908;8.364;2023-04-24T01:18:16;14.20;61.80
66140;DHT22;52945;51.908;8.364;2023-04-24T01:21:18;14.20;62.10
66140;DHT22;52945;51.908;8.364;2023-04-24T01:24:19;14.20;62.10
66140;DHT22;52945;51.908;8.364;2023-04-24T01:27:20;14.20;62.50
66140;DHT22;52945;51.908;8.364;2023-04-24T01:30:20;14.20;62.40
66140;DHT22;52945;51.908;8.364;2023-04-24T01:33:22;14.10;62.30
66140;DHT22;52945;51.908;8.364;2023-04-24T01:36:22;14.20;62.60
66140;DHT22;52945;51.908;8.364;2023-04-24T01:39:24;14.10;62.40
66140;DHT22;52945;51.908;8.364;2023-04-24T01:42:26;14.10;62.60
66140;DHT22;52945;51.908;8.364;2023-04-24T01:45:27;14.00;62.70
66140;DHT22;52945;51.908;8.364;2023-04-24T01:48:28;13.90;62.60
66140;DHT22;52945;51.908;8.364;2023-04-24T01:51:28;13.90;62.30
66140;DHT22;52945;51.908;8.364;2023-04-24T01:54:30;13.80;61.90
66140;DHT22;52945;51.908;8.364;2023-04-24T01:57:31;13.80;62.00
66140;DHT22;52945;51.908;8.364;2023-04-24T02:00:33;13.70;61.80
66140;DHT22;52945;51.908;8.364;2023-04-24T02:03:33;13.70;62.00
66140;DHT22;52945;51.908;8.364;2023-04-24T02:06:34;13.70;62.00
66140;DHT22;52945;51.908;8.364;2023-04-24T02:09:35;13.70;62.30
66140;DHT22;52945;51.908;8.364;2023-04-24T02:12:35;13.70;62.70
66140;DHT22;52945;51.908;8.364;2023-04-24T02:15:36;13.60;62.60
66140;DHT22;52945;51.908;8.364;2023-04-24T02:18:36;13.60;62.70
66140;DHT22;52945;51.908;8.364;2023-04-24T02:21:37;13.60;62.60
66140;DHT22;52945;51.908;8.364;2023-04-24T02:24:38;13.60;62.70
66140;DHT22;52945;51.908;8.364;2023-04-24T02:27:39;13.50;62.60
66140;DHT22;52945;51.908;8.364;2023-04-24T02:30:39;13.50;62.70
66140;DHT22;52945;51.908;8.364;2023-04-24T02:33:40;13.40;63.10
66140;DHT22;52945;51.908;8.364;2023-04-24T02:36:41;13.50;63.30
66140;DHT22;52945;51.908;8.364;2023-04-24T02:39:41;13.50;63.30
66140;DHT22;52945;51.908;8.364;2023-04-24T02:42:42;13.50;63.60
66140;DHT22;52945;51.908;8.364;2023-04-24T02:45:43;13.40;63.50
66140;DHT22;52945;51.908;8.364;2023-04-24T02:48:43;13.40;63.70
66140;DHT22;52945;51.908;8.364;2023-04-24T02:51:44;13.40;63.70
66140;DHT22;52945;51.908;8.364;2023-04-24T02:54:44;13.30;64.20
66140;DHT22;52945;51.908;8.364;2023-04-24T02:57:45;13.30;64.20
66140;DHT22;52945;51.908;8.364;2023-04-24T03:00:46;13.30;64.60
66140;DHT22;52945;51.908;8.364;2023-04-24T03:03:47;13.20;64.30
66140;DHT22;52945;51.908;8.364;2023-04-24T03:06:48;13.20;64.60
66140;DHT22;52945;51.908;8.364;2023-04-24T03:09:48;13.30;64.70
66140;DHT22;52945;51.908;8.364;2023-04-24T03:12:49;13.30;64.80
66140;DHT22;52945;51.908;8.364;2023-04-24T03:15:50;13.30;64.80
66140;DHT22;52945;51.908;8.364;2023-04-24T03:18:50;13.30;64.80
66140;DHT22;52945;51.908;8.364;2023-04-24T03:21:51;13.30;64.90
66140;DHT22;52945;51.908;8.364;2023-04-24T03:24:51;13.20;64.90
66140;DHT22;52945;51.908;8.364;2023-04-24T03:27:52;13.20;65.10
66140;DHT22;52945;51.908;8.364;2023-04-24T03:30:52;13.20;65.00
66140;DHT22;52945;51.908;8.364;2023-04-24T03:33:53;13.30;64.90
66140;DHT22;52945;51.908;8.364;2023-04-24T03:36:53;13.20;64.90
66140;DHT22;52945;51.908;8.364;2023-04-24T03:39:54;13.20;64.70
66140;DHT22;52945;51.908;8.364;2023-04-24T03:42:55;13.20;64.70
66140;DHT22;52945;51.908;8.364;2023-04-24T03:45:55;13.30;64.10
66140;DHT22;52945;51.908;8.364;2023-04-24T03:48:56;13.20;64.00
66140;DHT22;52945;51.908;8.364;2023-04-24T03:51:56;13.20;64.10
66140;DHT22;52945;51.908;8.364;2023-04-24T03:54:57;13.20;64.10
66140;DHT22;52945;51.908;8.364;2023-04-24T03:57:58;13.20;63.50
66140;DHT22;52945;51.908;8.364;2023-04-24T04:00:58;13.20;63.50
66140;DHT22;52945;51.908;8.364;2023-04-24T04:03:59;13.20;63.40
66140;DHT22;52945;51.908;8.364;2023-04-24T04:06:59;13.20;63.10
66140;DHT22;52945;51.908;8.364;2023-04-24T04:10:03;13.20;62.80
66140;DHT22;52945;51.908;8.364;2023-04-24T04:13:03;13.20;62.90
66140;DHT22;52945;51.908;8.364;2023-04-24T04:16:04;13.20;62.90
66140;DHT22;52945;51.908;8.364;2023-04-24T04:19:05;13.20;62.50
66140;DHT22;52945;51.908;8.364;2023-04-24T04:22:06;13.20;62.60
66140;DHT22;52945;51.908;8.364;2023-04-24T04:25:08;13.20;62.80
66140;DHT22;52945;51.908;8.364;2023-04-24T04:28:09;13.20;62.90
66140;DHT22;52945;51.908;8.364;2023-04-24T04:31:09;13.20;62.10
66140;DHT22;52945;51.908;8.364;2023-04-24T04:34:10;13.20;61.80
66140;DHT22;52945;51.908;8.364;2023-04-24T04:37:11;13.20;61.00
66140;DHT22;52945;51.908;8.364;2023-04-24T04:40:13;13.10;60.90
66140;DHT22;52945;51.908;8.364;2023-04-24T04:43:13;13.00;61.10
66140;DHT22;52945;51.908;8.364;2023-04-24T04:46:15;12.90;61.30
66140;DHT22;52945;51.908;8.364;2023-04-24T04:49:16;12.90;61.30
66140;DHT22;52945;51.908;8.364;2023-04-24T04:52:17;12.80;61.50
66140;DHT22;52945;51.908;8.364;2023-04-24T04:55:18;12.80;61.80
66140;DHT22;52945;51.908;8.364;2023-04-24T04:58:20;12.80;61.90
66140;DHT22;52945;51.908;8.364;2023-04-24T05:01:20;12.90;61.80
66140;DHT22;52945;51.908;8.364;2023-04-24T05:04:23;12.90;61.30
66140;DHT22;52945;51.908;8.364;2023-04-24T05:07:23;12.80;61.40
66140;DHT22;52945;51.908;8.364;2023-04-24T05:10:24;12.80;61.60
66140;DHT22;52945;51.908;8.364;2023-04-24T05:13:25;12.80;62.00
66140;DHT22;52945;51.908;8.364;2023-04-24T05:16:25;12.90;61.90
66140;DHT22;52945;51.908;8.364;2023-04-24T05:19:26;12.90;62.00
66140;DHT22;52945;51.908;8.364;2023-04-24T05:22:27;12.90;61.80
66140;DHT22;52945;51.908;8.364;2023-04-24T05:25:27;12.80;62.20
66140;DHT22;52945;51.908;8.364;2023-04-24T05:28:28;12.70;62.40
66140;DHT22;52945;51.908;8.364;2023-04-24T05:31:28;12.80;62.40
66140;DHT22;52945;51.908;8.364;2023-04-24T05:34:29;12.90;62.40
66140;DHT22;52945;51.908;8.364;2023-04-24T05:37:30;12.80;62.30
66140;DHT22;52945;51.908;8.364;2023-04-24T05:40:30;12.80;62.40
66140;DHT22;52945;51.908;8.364;2023-04-24T05:43:31;12.80;62.80
66140;DHT22;52945;51.908;8.364;2023-04-24T05:46:32;12.80;62.50
66140;DHT22;52945;51.908;8.364;2023-04-24T05:49:32;12.80;62.60
66140;DHT22;52945;51.908;8.364;2023-04-24T05:52:33;12.80;62.70
66140;DHT22;52945;51.908;8.364;2023-04-24T05:55:33;12.90;62.60
66140;DHT22;52945;51.908;8.364;2023-04-24T05:58:34;12.90;62.60
66140;DHT22;52945;51.908;8.364;2023-04-24T06:01:35;12.80;62.20
66140;DHT22;52945;51.908;8.364;2023-04-24T06:04:36;12.80;62.30
66140;DHT22;52945;51.908;8.364;2023-04-24T06:07:38;12.90;62.60
66140;DHT22;52945;51.908;8.364;2023-04-24T06:10:38;13.00;62.40
66140;DHT22;52945;51.908;8.364;2023-04-24T06:13:39;12.90;62.40
66140;DHT22;52945;51.908;8.364;2023-04-24T06:16:42;12.90;62.20
66140;DHT22;52945;51.908;8.364;2023-04-24T06:19:43;12.90;62.20
66140;DHT22;52945;51.908;8.364;2023-04-24T06:22:43;12.90;61.90
66140;DHT22;52945;51.908;8.364;2023-04-24T06:25:44;13.00;62.10
66140;DHT22;52945;51.908;8.364;2023-04-24T06:28:45;12.90;61.90
66140;DHT22;52945;51.908;8.364;2023-04-24T06:31:45;12.90;62.10
66140;DHT22;52945;51.908;8.364;2023-04-24T06:34:46;12.90;62.00
66140;DHT22;52945;51.908;8.364;2023-04-24T06:37:46;12.80;61.90
66140;DHT22;52945;51.908;8.364;2023-04-24T06:40:47;12.80;61.90
66140;DHT22;52945;51.908;8.364;2023-04-24T06:43:47;12.90;62.10
66140;DHT22;52945;51.908;8.364;2023-04-24T06:46:48;13.00;61.90
66140;DHT22;52945;51.908;8.364;2023-04-24T06:49:49;12.90;61.90
66140;DHT22;52945;51.908;8.364;2023-04-24T06:52:51;13.00;61.30
66140;DHT22;52945;51.908;8.364;2023-04-24T06:55:51;12.90;61.40
66140;DHT22;52945;51.908;8.364;2023-04-24T06:58:52;12.90;60.60
66140;DHT22;52945;51.908;8.364;2023-04-24T07:01:54;12.90;60.60
66140;DHT22;52945;51.908;8.364;2023-04-24T07:04:54;12.90;60.30
66140;DHT22;52945;51.908;8.364;2023-04-24T07:07:55;12.90;60.50
66140;DHT22;52945;51.908;8.364;2023-04-24T07:10:56;13.00;60.40
66140;DHT22;52945;51.908;8.364;2023-04-24T07:13:57;13.00;60.30
66140;DHT22;52945;51.908;8.364;2023-04-24T07:16:57;13.00;60.20
66140;DHT22;52945;51.908;8.364;2023-04-24T07:19:58;13.00;60.40
66140;DHT22;52945;51.908;8.364;2023-04-24T07:22:59;13.00;60.00
66140;DHT22;52945;51.908;8.364;2023-04-24T07:25:59;13.10;59.80
66140;DHT22;52945;51.908;8.364;2023-04-24T07:29:00;13.10;59.80
66140;DHT22;52945;51.908;8.364;2023-04-24T07:32:00;13.10;59.80
66140;DHT22;52945;51.908;8.364;2023-04-24T07:35:01;13.10;59.60
66140;DHT22;52945;51.908;8.364;2023-04-24T07:38:02;13.10;59.90
66140;DHT22;52945;51.908;8.364;2023-04-24T07:41:02;13.10;59.80
66140;DHT22;52945;51.908;8.364;2023-04-24T07:44:03;13.00;59.90
66140;DHT22;52945;51.908;8.364;2023-04-24T07:47:03;13.00;59.70
66140;DHT22;52945;51.908;8.364;2023-04-24T07:50:05;13.10;59.60
66140;DHT22;52945;51.908;8.364;2023-04-24T07:53:06;13.10;59.50
66140;DHT22;52945;51.908;8.364;2023-04-24T07:56:06;13.10;59.50
66140;DHT22;52945;51.908;8.364;2023-04-24T07:59:07;13.20;59.30
66140;DHT22;52945;51.908;8.364;2023-04-24T08:02:07;13.10;59.00
66140;DHT22;52945;51.908;8.364;2023-04-24T08:05:08;13.10;59.00
66140;DHT22;52945;51.908;8.364;2023-04-24T08:08:09;13.00;59.40
66140;DHT22;52945;51.908;8.364;2023-04-24T08:11:10;13.00;59.60
66140;DHT22;52945;51.908;8.364;2023-04-24T08:14:10;13.00;59.90
66140;DHT22;52945;51.908;8.364;2023-04-24T08:17:12;13.10;60.00
66140;DHT22;52945;51.908;8.364;2023-04-24T08:20:13;13.10;60.00
66140;DHT22;52945;51.908;8.364;2023-04-24T08:23:14;13.10;59.80
66140;DHT22;52945;51.908;8.364;2023-04-24T08:26:14;13.10;59.50
66140;DHT22;52945;51.908;8.364;2023-04-24T08:29:15;13.10;59.20
66140;DHT22;52945;51.908;8.364;2023-04-24T08:32:17;13.20;59.10
66140;DHT22;52945;51.908;8.364;2023-04-24T08:35:17;13.20;58.90
66140;DHT22;52945;51.908;8.364;2023-04-24T08:38:19;13.20;58.90
66140;DHT22;52945;51.908;8.364;2023-04-24T08:41:19;13.20;58.70
66140;DHT22;52945;51.908;8.364;2023-04-24T08:44:20;13.20;59.00
66140;DHT22;52945;51.908;8.364;2023-04-24T08:47:22;13.20;58.90
66140;DHT22;52945;51.908;8.364;2023-04-24T08:50:25;13.20;59.30
66140;DHT22;52945;51.908;8.364;2023-04-24T08:53:26;13.20;59.40
66140;DHT22;52945;51.908;8.364;2023-04-24T08:56:27;13.20;59.80
66140;DHT22;52945;51.908;8.364;2023-04-24T08:59:28;13.20;59.50
66140;DHT22;52945;51.908;8.364;2023-04-24T09:02:29;13.10;58.50
66140;DHT22;52945;51.908;8.364;2023-04-24T09:05:30;13.20;58.80
66140;DHT22;52945;51.908;8.364;2023-04-24T09:08:31;13.20;59.00
66140;DHT22;52945;51.908;8.364;2023-04-24T09:11:32;13.20;58.70
66140;DHT22;52945;51.908;8.364;2023-04-24T09:14:33;13.10;58.80
66140;DHT22;52945;51.908;8.364;2023-04-24T09:17:34;13.10;58.70
66140;DHT22;52945;51.908;8.364;2023-04-24T09:20:59;13.10;59.00
66140;DHT22;52945;51.908;8.364;2023-04-24T09:24:02;13.10;59.30
66140;DHT22;52945;51.908;8.364;2023-04-24T09:27:03;13.30;59.20
66140;DHT22;52945;51.908;8.364;2023-04-24T09:30:05;13.40;59.50
66140;DHT22;52945;51.908;8.364;2023-04-24T09:33:13;13.40;58.70
66140;DHT22;52945;51.908;8.364;2023-04-24T09:36:17;13.40;58.90
66140;DHT22;52945;51.908;8.364;2023-04-24T09:39:18;13.50;58.30
66140;DHT22;52945;51.908;8.364;2023-04-24T09:42:25;13.50;58.10
66140;DHT22;52945;51.908;8.364;2023-04-24T09:45:36;13.50;58.60
66140;DHT22;52945;51.908;8.364;2023-04-24T09:48:37;13.60;59.10
66140;DHT22;52945;51.908;8.364;2023-04-24T09:51:38;13.50;58.90
66140;DHT22;52945;51.908;8.364;2023-04-24T09:54:39;13.50;58.80
66140;DHT22;52945;51.908;8.364;2023-04-24T09:57:47;13.40;59.40
66140;DHT22;52945;51.908;8.364;2023-04-24T10:00:47;13.30;59.80
66140;DHT22;52945;51.908;8.364;2023-04-24T10:03:48;13.20;59.90
66140;DHT22;52945;51.908;8.364;2023-04-24T10:06:50;13.20;60.00
66140;DHT22;52945;51.908;8.364;2023-04-24T10:09:51;13.10;60.80
66140;DHT22;52945;51.908;8.364;2023-04-24T10:12:52;13.00;61.60
66140;DHT22;52945;51.908;8.364;2023-04-24T10:15:53;13.00;62.50
66140;DHT22;52945;51.908;8.364;2023-04-24T10:18:55;12.90;62.40
66140;DHT22;52945;51.908;8.364;2023-04-24T10:21:56;12.90;62.30
66140;DHT22;52945;51.908;8.364;2023-04-24T10:24:58;12.90;62.40
66140;DHT22;52945;51.908;8.364;2023-04-24T10:28:00;13.00;62.80
66140;DHT22;52945;51.908;8.364;2023-04-24T10:31:02;12.90;62.80
66140;DHT22;52945;51.908;8.364;2023-04-24T10:34:03;13.00;62.90
66140;DHT22;52945;51.908;8.364;2023-04-24T10:37:04;13.00;62.90
66140;DHT22;52945;51.908;8.364;2023-04-24T10:40:06;13.00;62.80
66140;DHT22;52945;51.908;8.364;2023-04-24T10:43:08;12.70;63.70
66140;DHT22;52945;51.908;8.364;2023-04-24T10:46:19;12.70;64.10
66140;DHT22;52945;51.908;8.364;2023-04-24T10:49:28;12.70;64.40
66140;DHT22;52945;51.908;8.364;2023-04-24T10:52:49;12.70;65.30
66140;DHT22;52945;51.908;8.364;2023-04-24T10:55:57;12.70;65.80
66140;DHT22;52945;51.908;8.364;2023-04-24T10:58:58;12.70;67.00
66140;DHT22;52945;51.908;8.364;2023-04-24T11:01:58;12.70;67.50
66140;DHT22;52945;51.908;8.364;2023-04-24T11:05:03;12.70;68.20
66140;DHT22;52945;51.908;8.364;2023-04-24T11:08:12;12.60;68.90
66140;DHT22;52945;51.908;8.364;2023-04-24T11:11:14;12.60;69.40
66140;DHT22;52945;51.908;8.364;2023-04-24T11:14:15;12.60;70.10
66140;DHT22;52945;51.908;8.364;2023-04-24T11:17:31;12.60;70.30
66140;DHT22;52945;51.908;8.364;2023-04-24T11:20:34;12.60;71.20
66140;DHT22;52945;51.908;8.364;2023-04-24T11:23:39;12.50;71.70
66140;DHT22;52945;51.908;8.364;2023-04-24T11:26:41;12.50;72.10
66140;DHT22;52945;51.908;8.364;2023-04-24T11:33:05;12.50;73.10
66140;DHT22;52945;51.908;8.364;2023-04-24T11:36:05;12.50;73.30
66140;DHT22;52945;51.908;8.364;2023-04-24T11:39:06;12.40;73.30
66140;DHT22;52945;51.908;8.364;2023-04-24T11:42:12;12.40;73.70
66140;DHT22;52945;51.908;8.364;2023-04-24T11:45:17;12.30;73.70
66140;DHT22;52945;51.908;8.364;2023-04-24T11:48:21;12.20;73.80
66140;DHT22;52945;51.908;8.364;2023-04-24T11:51:23;12.20;74.30
66140;DHT22;52945;51.908;8.364;2023-04-24T11:54:25;12.20;74.20
66140;DHT22;52945;51.908;8.364;2023-04-24T11:57:26;12.00;74.10
66140;DHT22;52945;51.908;8.364;2023-04-24T12:00:31;11.80;74.00
66140;DHT22;52945;51.908;8.364;2023-04-24T12:03:33;11.70;74.20
66140;DHT22;52945;51.908;8.364;2023-04-24T12:06:34;11.60;74.10
66140;DHT22;52945;51.908;8.364;2023-04-24T12:09:54;11.70;74.60
66140;DHT22;52945;51.908;8.364;2023-04-24T12:12:56;11.60;74.50
66140;DHT22;52945;51.908;8.364;2023-04-24T12:15:57;11.50;74.50
66140;DHT22;52945;51.908;8.364;2023-04-24T12:18:58;11.60;75.20
66140;DHT22;52945;51.908;8.364;2023-04-24T12:22:03;11.50;75.40
66140;DHT22;52945;51.908;8.364;2023-04-24T12:25:05;11.50;75.60
66140;DHT22;52945;51.908;8.364;2023-04-24T12:31:07;11.50;76.10
66140;DHT22;52945;51.908;8.364;2023-04-24T12:34:21;11.40;76.20
66140;DHT22;52945;51.908;8.364;2023-04-24T12:37:26;11.30;76.20
66140;DHT22;52945;51.908;8.364;2023-04-24T12:40:27;11.30;76.40
66140;DHT22;52945;51.908;8.364;2023-04-24T12:43:29;11.40;77.00
66140;DHT22;52945;51.908;8.364;2023-04-24T12:46:29;11.50;77.50
66140;DHT22;52945;51.908;8.364;2023-04-24T12:49:30;11.40;77.60
66140;DHT22;52945;51.908;8.364;2023-04-24T12:52:31;11.30;77.20
66140;DHT22;52945;51.908;8.364;2023-04-24T12:55:33;11.40;77.80
66140;DHT22;52945;51.908;8.364;2023-04-24T12:58:33;11.30;77.70
66140;DHT22;52945;51.908;8.364;2023-04-24T13:01:34;11.30;77.70
66140;DHT22;52945;51.908;8.364;2023-04-24T13:04:35;11.30;77.60
66140;DHT22;52945;51.908;8.364;2023-04-24T13:07:35;11.20;78.10
66140;DHT22;52945;51.908;8.364;2023-04-24T13:10:36;11.10;78.50
66140;DHT22;52945;51.908;8.364;2023-04-24T13:13:37;11.10;78.40
66140;DHT22;52945;51.908;8.364;2023-04-24T13:16:37;11.10;78.40
66140;DHT22;52945;51.908;8.364;2023-04-24T13:19:39;11.20;78.60
66140;DHT22;52945;51.908;8.364;2023-04-24T13:22:40;11.20;78.70
66140;DHT22;52945;51.908;8.364;2023-04-24T13:25:41;11.20;78.70
66140;DHT22;52945;51.908;8.364;2023-04-24T13:28:42;11.20;78.60
66140;DHT22;52945;51.908;8.364;2023-04-24T13:31:43;11.30;78.40
66140;DHT22;52945;51.908;8.364;2023-04-24T13:34:43;11.30;78.50
66140;DHT22;52945;51.908;8.364;2023-04-24T13:37:44;11.30;78.40
66140;DHT22;52945;51.908;8.364;2023-04-24T13:40:45;11.30;78.30
66140;DHT22;52945;51.908;8.364;2023-04-24T13:43:45;11.30;78.30
66140;DHT22;52945;51.908;8.364;2023-04-24T13:46:47;11.30;78.30
66140;DHT22;52945;51.908;8.364;2023-04-24T13:49:48;11.30;78.40
66140;DHT22;52945;51.908;8.364;2023-04-24T13:52:50;11.30;78.20
66140;DHT22;52945;51.908;8.364;2023-04-24T13:55:50;11.30;78.40
66140;DHT22;52945;51.908;8.364;2023-04-24T13:58:51;11.30;78.30
66140;DHT22;52945;51.908;8.364;2023-04-24T14:01:52;11.30;78.30
66140;DHT22;52945;51.908;8.364;2023-04-24T14:04:52;11.40;78.20
66140;DHT22;52945;51.908;8.364;2023-04-24T14:07:53;11.30;77.90
66140;DHT22;52945;51.908;8.364;2023-04-24T14:10:53;11.30;78.30
66140;DHT22;52945;51.908;8.364;2023-04-24T14:13:55;11.30;78.10
66140;DHT22;52945;51.908;8.364;2023-04-24T14:16:57;11.30;78.20
66140;DHT22;52945;51.908;8.364;2023-04-24T14:19:57;11.30;78.40
66140;DHT22;52945;51.908;8.364;2023-04-24T14:23:00;11.20;77.90
66140;DHT22;52945;51.908;8.364;2023-04-24T14:26:00;11.20;77.80
66140;DHT22;52945;51.908;8.364;2023-04-24T14:29:01;11.20;77.90
66140;DHT22;52945;51.908;8.364;2023-04-24T14:32:02;11.20;77.30
66140;DHT22;52945;51.908;8.364;2023-04-24T14:35:02;11.20;76.80
66140;DHT22;52945;51.908;8.364;2023-04-24T14:38:03;11.20;76.40
66140;DHT22;52945;51.908;8.364;2023-04-24T14:41:04;11.20;76.70
66140;DHT22;52945;51.908;8.364;2023-04-24T14:44:10;11.30;76.40
66140;DHT22;52945;51.908;8.364;2023-04-24T14:47:11;11.20;75.70
66140;DHT22;52945;51.908;8.364;2023-04-24T14:50:12;11.20;75.60
66140;DHT22;52945;51.908;8.364;2023-04-24T14:53:13;11.30;75.60
66140;DHT22;52945;51.908;8.364;2023-04-24T14:56:15;11.20;74.40
66140;DHT22;52945;51.908;8.364;2023-04-24T14:59:16;11.10;74.20
66140;DHT22;52945;51.908;8.364;2023-04-24T15:02:17;11.10;74.10
66140;DHT22;52945;51.908;8.364;2023-04-24T15:05:18;11.20;75.10
66140;DHT22;52945;51.908;8.364;2023-04-24T15:08:19;11.30;75.60
66140;DHT22;52945;51.908;8.364;2023-04-24T15:11:20;11.20;74.90
66140;DHT22;52945;51.908;8.364;2023-04-24T15:14:24;11.20;74.50
66140;DHT22;52945;51.908;8.364;2023-04-24T15:17:25;11.20;74.30
66140;DHT22;52945;51.908;8.364;2023-04-24T15:20:27;11.30;74.10
66140;DHT22;52945;51.908;8.364;2023-04-24T15:23:27;11.30;73.90
66140;DHT22;52945;51.908;8.364;2023-04-24T15:26:28;11.40;73.80
66140;DHT22;52945;51.908;8.364;2023-04-24T15:29:29;11.50;73.70
66140;DHT22;52945;51.908;8.364;2023-04-24T15:32:30;11.50;73.20
66140;DHT22;52945;51.908;8.364;2023-04-24T15:35:34;11.60;73.70
66140;DHT22;52945;51.908;8.364;2023-04-24T15:38:35;11.60;72.60
66140;DHT22;52945;51.908;8.364;2023-04-24T15:41:36;11.60;72.80
66140;DHT22;52945;51.908;8.364;2023-04-24T15:44:40;11.60;71.70
66140;DHT22;52945;51.908;8.364;2023-04-24T15:47:41;11.60;71.80
66140;DHT22;52945;51.908;8.364;2023-04-24T15:50:41;11.60;71.90
66140;DHT22;52945;51.908;8.364;2023-04-24T15:53:42;11.60;71.60
66140;DHT22;52945;51.908;8.364;2023-04-24T15:56:43;11.60;71.90
66140;DHT22;52945;51.908;8.364;2023-04-24T15:59:44;11.60;71.60
66140;DHT22;52945;51.908;8.364;2023-04-24T16:02:45;11.60;71.30
66140;DHT22;52945;51.908;8.364;2023-04-24T16:05:45;11.60;71.40
66140;DHT22;52945;51.908;8.364;2023-04-24T16:08:46;11.70;71.60
66140;DHT22;52945;51.908;8.364;2023-04-24T16:11:47;11.70;71.30
66140;DHT22;52945;51.908;8.364;2023-04-24T16:14:48;11.70;70.60
66140;DHT22;52945;51.908;8.364;2023-04-24T16:17:49;11.70;70.20
66140;DHT22;52945;51.908;8.364;2023-04-24T16:20:50;11.70;69.50
66140;DHT22;52945;51.908;8.364;2023-04-24T16:23:50;11.70;69.00
66140;DHT22;52945;51.908;8.364;2023-04-24T16:26:51;11.70;68.90
66140;DHT22;52945;51.908;8.364;2023-04-24T16:29:52;11.70;68.80
66140;DHT22;52945;51.908;8.364;2023-04-24T16:32:53;11.70;69.00
66140;DHT22;52945;51.908;8.364;2023-04-24T16:35:54;11.80;69.00
66140;DHT22;52945;51.908;8.364;2023-04-24T16:38:55;11.80;68.10
66140;DHT22;52945;51.908;8.364;2023-04-24T16:41:55;11.80;67.90
66140;DHT22;52945;51.908;8.364;2023-04-24T16:44:57;11.70;67.00
66140;DHT22;52945;51.908;8.364;2023-04-24T16:47:57;11.70;67.40
66140;DHT22;52945;51.908;8.364;2023-04-24T16:50:58;11.70;67.40
66140;DHT22;52945;51.908;8.364;2023-04-24T16:53:59;11.70;66.80
66140;DHT22;52945;51.908;8.364;2023-04-24T16:56:59;11.70;67.50
66140;DHT22;52945;51.908;8.364;2023-04-24T17:00:00;11.60;67.90
66140;DHT22;52945;51.908;8.364;2023-04-24T17:03:00;11.70;68.50
66140;DHT22;52945;51.908;8.364;2023-04-24T17:06:01;11.70;67.90
66140;DHT22;52945;51.908;8.364;2023-04-24T17:09:02;11.80;68.40
66140;DHT22;52945;51.908;8.364;2023-04-24T17:12:03;11.80;68.10
66140;DHT22;52945;51.908;8.364;2023-04-24T17:15:04;11.80;67.20
66140;DHT22;52945;51.908;8.364;2023-04-24T17:18:05;11.80;67.80
66140;DHT22;52945;51.908;8.364;2023-04-24T17:21:05;11.80;67.30
66140;DHT22;52945;51.908;8.364;2023-04-24T17:24:06;11.70;67.30
66140;DHT22;52945;51.908;8.364;2023-04-24T17:27:07;11.80;68.10
66140;DHT22;52945;51.908;8.364;2023-04-24T17:30:08;11.80;68.10
66140;DHT22;52945;51.908;8.364;2023-04-24T17:33:08;11.80;68.30
66140;DHT22;52945;51.908;8.364;2023-04-24T17:36:09;11.70;67.80
66140;DHT22;52945;51.908;8.364;2023-04-24T17:39:10;11.90;68.20
66140;DHT22;52945;51.908;8.364;2023-04-24T17:42:11;11.80;67.30
66140;DHT22;52945;51.908;8.364;2023-04-24T17:45:11;11.80;67.30
66140;DHT22;52945;51.908;8.364;2023-04-24T17:48:13;11.80;66.60
66140;DHT22;52945;51.908;8.364;2023-04-24T17:51:13;11.80;66.80
66140;DHT22;52945;51.908;8.364;2023-04-24T17:54:14;11.70;66.80
66140;DHT22;52945;51.908;8.364;2023-04-24T17:57:15;11.80;66.90
66140;DHT22;52945;51.908;8.364;2023-04-24T18:00:16;11.80;67.10
66140;DHT22;52945;51.908;8.364;2023-04-24T18:03:16;11.70;67.80
66140;DHT22;52945;51.908;8.364;2023-04-24T18:06:17;11.70;68.00
66140;DHT22;52945;51.908;8.364;2023-04-24T18:09:18;11.70;68.10
66140;DHT22;52945;51.908;8.364;2023-04-24T18:12:20;11.70;68.10
66140;DHT22;52945;51.908;8.364;2023-04-24T18:15:21;11.70;68.00
66140;DHT22;52945;51.908;8.364;2023-04-24T18:18:21;11.60;67.90
66140;DHT22;52945;51.908;8.364;2023-04-24T18:21:22;11.60;67.70
66140;DHT22;52945;51.908;8.364;2023-04-24T18:24:24;11.70;68.20
66140;DHT22;52945;51.908;8.364;2023-04-24T18:27:25;11.60;68.30
66140;DHT22;52945;51.908;8.364;2023-04-24T18:30:28;11.60;68.10
66140;DHT22;52945;51.908;8.364;2023-04-24T18:33:30;11.50;68.40
66140;DHT22;52945;51.908;8.364;2023-04-24T18:36:31;11.50;68.60
66140;DHT22;52945;51.908;8.364;2023-04-24T18:39:32;11.40;68.50
66140;DHT22;52945;51.908;8.364;2023-04-24T18:42:33;11.40;68.60
66140;DHT22;52945;51.908;8.364;2023-04-24T18:45:33;11.30;68.40
66140;DHT22;52945;51.908;8.364;2023-04-24T18:48:34;11.30;68.50
66140;DHT22;52945;51.908;8.364;2023-04-24T18:51:34;11.20;68.70
66140;DHT22;52945;51.908;8.364;2023-04-24T18:54:35;11.30;69.00
66140;DHT22;52945;51.908;8.364;2023-04-24T18:57:35;11.20;69.20
66140;DHT22;52945;51.908;8.364;2023-04-24T19:00:36;11.20;69.20
66140;DHT22;52945;51.908;8.364;2023-04-24T19:03:37;11.20;69.10
66140;DHT22;52945;51.908;8.364;2023-04-24T19:06:38;11.20;69.30
66140;DHT22;52945;51.908;8.364;2023-04-24T19:09:39;11.20;69.20
66140;DHT22;52945;51.908;8.364;2023-04-24T19:12:40;11.20;69.20